KTOP/TOP METAR and TAF weather

Enter ICAO airport designator
Station Type Date Time Source
KTOP METAR 2021/08/01 16:53 UTC NOAA

KTOP 011653Z 34010G16KT 4SM HZ SCT038 28/14 A3016 RMK AO2 SLP203 T02780144


Station Type Date Time Source
KTOP Decoded METAR 2021/08/01 16:53 UTC NOAA

TOPEKA BILLARD MUNICIPAL AIRPORT, KS, United States (KTOP) 39-04N 95-38W 268M
Aug 01, 2021 - 12:53 PM EDT / 2021.08.01 1653 UTC
Wind: from the NNW (340 degrees) at 12 MPH (10 KT) gusting to 18 MPH (16 KT):0
Visibility: 4 mile(s):0
Sky conditions: partly cloudy
Weather: haze
Temperature: 82.0 F (27.8 C)
Dew Point: 57.9 F (14.4 C)
Relative Humidity: 43%
Pressure (altimeter): 30.16 in. Hg (1021 hPa)
ob: KTOP 011653Z 34010G16KT 4SM HZ SCT038 28/14 A3016 RMK AO2 SLP203 T02780144
cycle: 17

Station Type Date Time Source
KTOP TAF 2021/08/01 12:57 UTC NOAA

TAF KTOP 011154Z 0112/0212 32003KT 2SM HZ FEW100
FM011400 35007KT 5SM HZ SKC
FM011600 36009KT P6SM SKC

Example: see airport list